createdAt,value
2018-05-16T00:00:25.754Z,19.88
2018-05-16T00:01:01.199Z,19.88
2018-05-16T00:01:36.498Z,19.94
2018-05-16T00:02:11.963Z,19.97
2018-05-16T00:02:47.321Z,20.00
2018-05-16T00:03:22.683Z,19.94
2018-05-16T00:03:58.154Z,19.87
2018-05-16T00:04:33.700Z,19.95
2018-05-16T00:05:09.164Z,19.87
2018-05-16T00:05:44.730Z,19.90
2018-05-16T00:06:19.956Z,19.83
2018-05-16T00:06:55.472Z,19.97
2018-05-16T00:07:30.562Z,19.93
2018-05-16T00:08:06.036Z,19.95
2018-05-16T00:08:41.318Z,19.91
2018-05-16T00:09:16.521Z,19.84
2018-05-16T00:09:51.805Z,19.97
2018-05-16T00:10:27.661Z,19.90
2018-05-16T00:11:02.986Z,19.84
2018-05-16T00:11:37.896Z,19.84
2018-05-16T00:12:13.346Z,19.84
2018-05-16T00:12:49.003Z,19.87
2018-05-16T00:13:24.446Z,19.86
2018-05-16T00:13:59.734Z,19.75
2018-05-16T00:14:34.790Z,19.73
2018-05-16T00:15:10.120Z,19.80
2018-05-16T00:15:45.453Z,19.86
2018-05-16T00:16:21.042Z,19.87
2018-05-16T00:16:56.483Z,19.87
2018-05-16T00:17:31.871Z,19.78
2018-05-16T00:18:07.205Z,19.93
2018-05-16T00:18:42.654Z,19.73
2018-05-16T00:19:18.194Z,19.78
2018-05-16T00:19:53.632Z,19.79
2018-05-16T00:20:29.342Z,19.73
2018-05-16T00:21:04.533Z,19.65
2018-05-16T00:21:40.148Z,19.69
2018-05-16T00:22:15.568Z,19.63
2018-05-16T00:22:51.203Z,19.57
2018-05-16T00:23:26.494Z,19.54
2018-05-16T00:24:01.828Z,19.54
2018-05-16T00:24:37.025Z,19.54
2018-05-16T00:25:12.559Z,19.47
2018-05-16T00:25:49.235Z,19.36
2018-05-16T00:26:24.820Z,19.40
2018-05-16T00:27:00.151Z,19.23
2018-05-16T00:27:35.599Z,19.20
2018-05-16T00:28:11.120Z,19.08
2018-05-16T00:28:46.796Z,19.02
2018-05-16T00:29:22.143Z,19.06
2018-05-16T00:29:57.747Z,19.08
2018-05-16T00:30:33.463Z,18.99
2018-05-16T00:31:08.856Z,18.95
2018-05-16T00:31:44.626Z,18.80
2018-05-16T00:32:19.977Z,18.87
2018-05-16T00:32:55.377Z,18.80
2018-05-16T00:33:31.001Z,18.77
2018-05-16T00:34:06.302Z,18.73
2018-05-16T00:34:41.798Z,18.68
2018-05-16T00:35:17.704Z,18.70
2018-05-16T00:35:52.813Z,18.70
2018-05-16T00:36:28.392Z,18.72
2018-05-16T00:37:03.877Z,18.65
2018-05-16T00:37:39.104Z,18.65
2018-05-16T00:38:14.516Z,18.72
2018-05-16T00:38:49.756Z,18.79
2018-05-16T00:39:25.110Z,18.72
2018-05-16T00:40:00.301Z,18.77
2018-05-16T00:40:35.776Z,18.74
2018-05-16T00:41:11.210Z,18.65
2018-05-16T00:41:46.867Z,18.79
2018-05-16T00:42:22.399Z,18.72
2018-05-16T00:42:58.055Z,18.72
2018-05-16T00:43:33.866Z,18.74
2018-05-16T00:44:09.205Z,18.80
2018-05-16T00:44:44.648Z,18.79
2018-05-16T00:45:20.119Z,18.77
2018-05-16T00:45:55.589Z,18.74
2018-05-16T00:46:31.283Z,18.67
2018-05-16T00:47:06.474Z,18.76
2018-05-16T00:47:41.651Z,18.77
2018-05-16T00:48:16.895Z,18.73
2018-05-16T00:48:52.107Z,18.70
2018-05-16T00:49:27.486Z,18.77
2018-05-16T00:50:02.705Z,18.72
2018-05-16T00:50:38.193Z,18.72
2018-05-16T00:51:13.190Z,18.74
2018-05-16T00:51:48.671Z,18.73
2018-05-16T00:52:23.943Z,18.70
2018-05-16T00:52:59.301Z,18.70
2018-05-16T00:53:34.619Z,18.61
2018-05-16T00:54:10.099Z,18.52
2018-05-16T00:54:45.347Z,18.57
2018-05-16T00:55:20.749Z,18.44
2018-05-16T00:55:56.546Z,18.34
2018-05-16T00:56:31.907Z,18.17
2018-05-16T00:57:07.657Z,18.09
2018-05-16T00:57:43.411Z,18.04
2018-05-16T00:58:18.819Z,17.92
2018-05-16T00:58:54.226Z,17.92
2018-05-16T00:59:29.462Z,18.04
2018-05-16T01:00:04.844Z,17.94
2018-05-16T01:00:40.289Z,17.99
2018-05-16T01:01:15.674Z,17.99
2018-05-16T01:01:51.475Z,18.00
2018-05-16T01:02:27.238Z,17.85
2018-05-16T01:03:02.759Z,17.70
2018-05-16T01:03:38.207Z,17.74
2018-05-16T01:04:13.583Z,17.70
2018-05-16T01:04:49.014Z,17.63
2018-05-16T01:05:24.342Z,17.70
2018-05-16T01:05:59.633Z,17.69
2018-05-16T01:06:34.851Z,17.71
2018-05-16T01:07:09.978Z,17.66
2018-05-16T01:07:45.309Z,17.59
2018-05-16T01:08:21.188Z,17.71
2018-05-16T01:08:56.515Z,17.67
2018-05-16T01:09:32.111Z,17.66
2018-05-16T01:10:07.136Z,17.79
2018-05-16T01:10:42.520Z,17.71
2018-05-16T01:11:17.873Z,17.76
2018-05-16T01:11:53.234Z,17.73
2018-05-16T01:12:28.606Z,17.84
2018-05-16T01:13:04.092Z,17.85
2018-05-16T01:13:39.421Z,17.87
2018-05-16T01:14:14.795Z,17.89
2018-05-16T01:14:50.004Z,17.92
2018-05-16T01:15:25.680Z,17.85
2018-05-16T01:16:01.077Z,17.89
2018-05-16T01:16:36.258Z,17.89
2018-05-16T01:17:11.438Z,17.99
2018-05-16T01:17:46.572Z,18.02
2018-05-16T01:18:21.993Z,18.06
2018-05-16T01:18:57.371Z,17.99
2018-05-16T01:19:32.953Z,18.06
2018-05-16T01:20:08.368Z,17.99
2018-05-16T01:20:43.649Z,18.07
2018-05-16T01:21:18.947Z,18.07
2018-05-16T01:21:54.129Z,18.09
2018-05-16T01:22:29.504Z,18.06
2018-05-16T01:23:04.669Z,17.99
2018-05-16T01:23:40.389Z,18.02
2018-05-16T01:24:15.795Z,17.99
2018-05-16T01:24:50.956Z,18.00
2018-05-16T01:25:26.589Z,17.95
2018-05-16T01:26:02.042Z,17.92
2018-05-16T01:26:37.244Z,17.99
2018-05-16T01:27:12.431Z,17.95
2018-05-16T01:27:48.128Z,17.92
2018-05-16T01:28:23.330Z,17.95
2018-05-16T01:28:58.662Z,18.02
2018-05-16T01:29:33.864Z,18.00
2018-05-16T01:30:09.285Z,18.03
2018-05-16T01:30:44.874Z,18.06
2018-05-16T01:31:20.238Z,17.92
2018-05-16T01:31:55.706Z,17.92
2018-05-16T01:32:31.061Z,17.97
2018-05-16T01:33:06.594Z,17.99
2018-05-16T01:33:42.266Z,17.95
2018-05-16T01:34:17.522Z,18.00
2018-05-16T01:34:52.858Z,18.00
2018-05-16T01:35:28.334Z,17.97
2018-05-16T01:36:03.566Z,18.02
2018-05-16T01:36:38.934Z,18.03
2018-05-16T01:37:14.221Z,18.07
2018-05-16T01:37:49.648Z,18.18
2018-05-16T01:38:24.763Z,18.15
2018-05-16T01:38:59.895Z,18.12
2018-05-16T01:39:35.569Z,18.03
2018-05-16T01:40:10.888Z,18.03
2018-05-16T01:40:46.408Z,18.06
2018-05-16T01:41:21.615Z,18.02
2018-05-16T01:41:56.826Z,17.94
2018-05-16T01:42:32.418Z,18.00
2018-05-16T01:43:08.098Z,17.89
2018-05-16T01:43:43.627Z,17.76
2018-05-16T01:44:19.089Z,17.66
2018-05-16T01:44:54.611Z,17.62
2018-05-16T01:45:29.818Z,17.64
2018-05-16T01:46:05.207Z,17.62
2018-05-16T01:46:40.651Z,17.59
2018-05-16T01:47:16.058Z,17.62
2018-05-16T01:47:51.253Z,17.67
2018-05-16T01:48:26.688Z,17.66
2018-05-16T01:49:01.974Z,17.55
2018-05-16T01:49:37.588Z,17.57
2018-05-16T01:50:13.011Z,17.62
2018-05-16T01:50:48.416Z,17.59
2018-05-16T01:51:24.288Z,17.57
2018-05-16T01:51:59.630Z,17.64
2018-05-16T01:52:34.941Z,17.62
2018-05-16T01:53:10.175Z,17.66
2018-05-16T01:53:45.345Z,17.59
2018-05-16T01:54:20.477Z,17.63
2018-05-16T01:54:56.024Z,17.55
2018-05-16T01:55:31.190Z,17.66
2018-05-16T01:56:06.489Z,17.66
2018-05-16T01:56:41.850Z,17.59
2018-05-16T01:57:17.219Z,17.67
2018-05-16T01:57:52.806Z,17.69
2018-05-16T01:58:28.349Z,17.59
2018-05-16T01:59:03.808Z,17.59
2018-05-16T01:59:38.894Z,17.55
2018-05-16T02:00:14.210Z,17.51
2018-05-16T02:00:49.392Z,17.57
2018-05-16T02:01:24.539Z,17.46
2018-05-16T02:02:00.109Z,17.44
2018-05-16T02:02:35.584Z,17.41
2018-05-16T02:03:10.989Z,17.41
2018-05-16T02:03:46.412Z,17.38
2018-05-16T02:04:21.864Z,17.43
2018-05-16T02:04:57.287Z,17.48
2018-05-16T02:05:33.014Z,17.44
2018-05-16T02:06:08.546Z,17.50
2018-05-16T02:06:45.181Z,17.46
2018-05-16T02:07:20.604Z,17.51
2018-05-16T02:07:56.014Z,17.44
2018-05-16T02:08:31.399Z,17.40
2018-05-16T02:09:06.830Z,17.40
2018-05-16T02:09:42.497Z,17.38
2018-05-16T02:10:17.739Z,17.38
2018-05-16T02:10:53.115Z,17.38
2018-05-16T02:11:28.418Z,17.35
2018-05-16T02:12:03.976Z,17.29
2018-05-16T02:12:40.921Z,17.40
2018-05-16T02:13:16.252Z,17.32
2018-05-16T02:13:51.483Z,17.23
2018-05-16T02:14:26.988Z,17.33
2018-05-16T02:15:02.285Z,17.26
2018-05-16T02:15:41.327Z,17.29
2018-05-16T02:16:16.544Z,17.29
2018-05-16T02:16:51.927Z,17.30
2018-05-16T02:17:27.498Z,17.28
2018-05-16T02:18:02.691Z,17.35
2018-05-16T02:18:38.026Z,17.35
2018-05-16T02:19:13.696Z,17.22
2018-05-16T02:19:48.969Z,17.29
2018-05-16T02:20:24.247Z,17.30
2018-05-16T02:20:59.584Z,17.23
2018-05-16T02:21:34.942Z,17.18
2018-05-16T02:22:10.785Z,17.17
2018-05-16T02:22:45.792Z,17.17
2018-05-16T02:23:21.119Z,17.22
2018-05-16T02:23:56.494Z,17.22
2018-05-16T02:24:32.137Z,17.25
2018-05-16T02:25:07.594Z,17.26
2018-05-16T02:25:43.202Z,17.25
2018-05-16T02:26:18.441Z,17.20
2018-05-16T02:26:53.783Z,17.14
2018-05-16T02:27:28.978Z,17.18
2018-05-16T02:28:04.651Z,17.11
2018-05-16T02:28:39.911Z,17.10
2018-05-16T02:29:15.554Z,17.15
2018-05-16T02:29:51.151Z,17.15
2018-05-16T02:30:26.443Z,17.08
2018-05-16T02:31:01.800Z,17.17
2018-05-16T02:31:37.380Z,17.23
2018-05-16T02:32:12.617Z,17.13
2018-05-16T02:32:47.920Z,17.14
2018-05-16T02:33:23.885Z,17.18
2018-05-16T02:33:59.178Z,17.18
2018-05-16T02:34:34.407Z,17.07
2018-05-16T02:35:09.615Z,17.15
2018-05-16T02:35:45.373Z,17.17
2018-05-16T02:36:20.571Z,17.22
2018-05-16T02:36:56.050Z,17.22
2018-05-16T02:37:31.517Z,17.20
2018-05-16T02:38:07.010Z,17.13
2018-05-16T02:38:42.323Z,17.17
2018-05-16T02:39:17.654Z,17.11
2018-05-16T02:39:53.199Z,17.07
2018-05-16T02:40:28.683Z,17.14
2018-05-16T02:41:04.290Z,17.11
2018-05-16T02:41:39.500Z,17.15
2018-05-16T02:42:15.020Z,17.10
2018-05-16T02:42:50.394Z,17.07
2018-05-16T02:43:25.710Z,17.07
2018-05-16T02:44:01.276Z,17.07
2018-05-16T02:44:36.616Z,17.03
2018-05-16T02:45:12.083Z,17.10
2018-05-16T02:45:47.630Z,17.06
2018-05-16T02:46:23.069Z,17.13
2018-05-16T02:46:58.674Z,17.10
2018-05-16T02:47:33.933Z,17.08
2018-05-16T02:48:09.483Z,17.06
2018-05-16T02:48:44.804Z,17.07
2018-05-16T02:49:20.625Z,17.08
2018-05-16T02:49:55.709Z,17.17
2018-05-16T02:50:31.154Z,17.14
2018-05-16T02:51:06.842Z,17.10
2018-05-16T02:51:42.001Z,17.10
2018-05-16T02:52:17.582Z,17.07
2018-05-16T02:52:52.827Z,17.14
2018-05-16T02:53:28.282Z,17.17
2018-05-16T02:54:03.544Z,17.14
2018-05-16T02:54:38.877Z,17.03
2018-05-16T02:55:14.467Z,17.10
2018-05-16T02:55:49.824Z,17.00
2018-05-16T02:56:25.340Z,17.00
2018-05-16T02:57:00.712Z,17.07
2018-05-16T02:57:36.055Z,16.96
2018-05-16T02:58:11.619Z,16.95
2018-05-16T02:58:46.814Z,16.90
2018-05-16T02:59:22.251Z,17.04
2018-05-16T02:59:57.634Z,17.08
2018-05-16T03:00:33.182Z,17.06
2018-05-16T03:01:08.475Z,16.98
2018-05-16T03:01:43.808Z,16.95
2018-05-16T03:02:19.218Z,17.00
2018-05-16T03:02:54.505Z,17.00
2018-05-16T03:03:29.539Z,17.06
2018-05-16T03:04:04.763Z,16.98
2018-05-16T03:04:40.030Z,17.00
2018-05-16T03:05:15.373Z,17.04
2018-05-16T03:05:51.166Z,16.98
2018-05-16T03:06:26.310Z,17.03
2018-05-16T03:07:01.453Z,17.04
2018-05-16T03:07:36.838Z,16.95
2018-05-16T03:08:12.122Z,16.96
2018-05-16T03:08:47.434Z,17.07
2018-05-16T03:09:22.718Z,17.08
2018-05-16T03:09:58.068Z,17.04
2018-05-16T03:10:33.362Z,17.17
2018-05-16T03:11:08.794Z,17.08
2018-05-16T03:11:44.292Z,17.11
2018-05-16T03:12:19.861Z,17.17
2018-05-16T03:12:55.087Z,17.17
2018-05-16T03:13:30.337Z,17.15
2018-05-16T03:14:05.637Z,17.20
2018-05-16T03:14:41.005Z,17.14
2018-05-16T03:15:16.624Z,17.18
2018-05-16T03:15:52.326Z,17.06
2018-05-16T03:16:27.855Z,17.10
2018-05-16T03:17:03.317Z,17.26
2018-05-16T03:17:38.794Z,17.18
2018-05-16T03:18:13.953Z,17.04
2018-05-16T03:18:49.615Z,17.17
2018-05-16T03:19:25.242Z,17.11
2018-05-16T03:20:00.906Z,17.13
2018-05-16T03:20:36.892Z,17.15
2018-05-16T03:21:12.297Z,17.10
2018-05-16T03:21:47.718Z,17.15
2018-05-16T03:22:23.003Z,17.18
2018-05-16T03:22:58.263Z,17.14
2018-05-16T03:23:33.848Z,17.11
2018-05-16T03:24:09.244Z,17.14
2018-05-16T03:24:44.477Z,17.13
2018-05-16T03:25:19.865Z,17.13
2018-05-16T03:25:55.098Z,17.13
2018-05-16T03:26:30.464Z,17.04
2018-05-16T03:27:05.898Z,17.06
2018-05-16T03:27:41.133Z,17.06
2018-05-16T03:28:16.819Z,17.11
2018-05-16T03:28:52.283Z,17.10
2018-05-16T03:29:27.867Z,17.15
2018-05-16T03:30:03.111Z,17.04
2018-05-16T03:30:38.576Z,17.04
2018-05-16T03:31:14.109Z,17.04
2018-05-16T03:31:49.576Z,17.03
2018-05-16T03:32:24.722Z,17.04
2018-05-16T03:33:00.133Z,17.07
2018-05-16T03:33:35.712Z,17.06
2018-05-16T03:34:10.964Z,17.07
2018-05-16T03:34:46.417Z,17.00
2018-05-16T03:35:22.153Z,17.04
2018-05-16T03:35:57.731Z,17.06
2018-05-16T03:36:33.082Z,16.96
2018-05-16T03:37:08.442Z,16.96
2018-05-16T03:37:44.047Z,17.06
2018-05-16T03:38:19.752Z,16.99
2018-05-16T03:38:55.010Z,16.96
2018-05-16T03:39:30.333Z,16.93
2018-05-16T03:40:05.661Z,16.95
2018-05-16T03:40:40.853Z,16.92
2018-05-16T03:41:16.513Z,16.86
2018-05-16T03:41:51.941Z,16.92
2018-05-16T03:42:27.777Z,16.92
2018-05-16T03:43:03.106Z,16.86
2018-05-16T03:43:38.476Z,16.93
2018-05-16T03:44:14.005Z,16.89
2018-05-16T03:44:49.397Z,16.95
2018-05-16T03:45:24.786Z,16.98
2018-05-16T03:46:00.236Z,16.93
2018-05-16T03:46:35.650Z,16.93
2018-05-16T03:47:11.056Z,16.93
2018-05-16T03:47:46.304Z,16.90
2018-05-16T03:48:21.497Z,16.90
2018-05-16T03:48:56.690Z,16.90
2018-05-16T03:49:31.789Z,16.92
2018-05-16T03:50:07.314Z,16.81
2018-05-16T03:50:42.577Z,16.78
2018-05-16T03:51:17.980Z,16.71
2018-05-16T03:51:53.474Z,16.77
2018-05-16T03:52:28.903Z,16.75
2018-05-16T03:53:04.112Z,16.62
2018-05-16T03:53:39.470Z,16.73
2018-05-16T03:54:14.734Z,16.73
2018-05-16T03:54:49.997Z,16.65
2018-05-16T03:55:25.424Z,16.65
2018-05-16T03:56:00.623Z,16.62
2018-05-16T03:56:36.298Z,16.60
2018-05-16T03:57:11.530Z,16.59
2018-05-16T03:57:47.062Z,16.49
2018-05-16T03:58:22.436Z,16.58
2018-05-16T03:58:57.718Z,16.59
2018-05-16T03:59:33.123Z,16.50
2018-05-16T04:00:08.443Z,16.50
2018-05-16T04:00:43.866Z,16.42
2018-05-16T04:01:19.061Z,16.31
2018-05-16T04:01:54.499Z,16.30
2018-05-16T04:02:30.013Z,16.27
2018-05-16T04:03:05.503Z,16.30
2018-05-16T04:03:41.005Z,16.30
2018-05-16T04:04:16.350Z,16.34
2018-05-16T04:04:52.668Z,16.31
2018-05-16T04:05:28.098Z,16.41
2018-05-16T04:06:03.874Z,16.40
2018-05-16T04:06:39.328Z,16.48
2018-05-16T04:07:14.740Z,16.45
2018-05-16T04:07:50.146Z,16.49
2018-05-16T04:08:26.000Z,16.50
2018-05-16T04:09:01.488Z,16.44
2018-05-16T04:09:37.222Z,16.41
2018-05-16T04:10:12.715Z,16.53
2018-05-16T04:10:48.365Z,16.45
2018-05-16T04:11:23.940Z,16.48
2018-05-16T04:11:59.237Z,16.49
2018-05-16T04:12:34.768Z,16.55
2018-05-16T04:13:10.172Z,16.55
2018-05-16T04:13:45.384Z,16.58
2018-05-16T04:14:20.682Z,16.44
2018-05-16T04:14:55.960Z,16.49
2018-05-16T04:15:31.532Z,16.55
2018-05-16T04:16:07.067Z,16.58
2018-05-16T04:16:42.508Z,16.63
2018-05-16T04:17:17.891Z,16.62
2018-05-16T04:17:53.764Z,16.55
2018-05-16T04:18:29.149Z,16.60
2018-05-16T04:19:04.713Z,16.60
2018-05-16T04:19:40.050Z,16.62
2018-05-16T04:20:15.390Z,16.60
2018-05-16T04:20:50.505Z,16.60
2018-05-16T04:21:25.920Z,16.55
2018-05-16T04:22:01.597Z,16.67
2018-05-16T04:22:37.138Z,16.68
2018-05-16T04:23:12.479Z,16.62
2018-05-16T04:23:48.000Z,16.59
2018-05-16T04:24:23.240Z,16.58
2018-05-16T04:24:58.644Z,16.67
2018-05-16T04:25:34.181Z,16.65
2018-05-16T04:26:09.593Z,16.75
2018-05-16T04:26:45.330Z,16.75
2018-05-16T04:27:20.630Z,16.75
2018-05-16T04:27:55.807Z,16.81
2018-05-16T04:28:31.419Z,16.67
2018-05-16T04:29:06.796Z,16.70
2018-05-16T04:29:42.130Z,16.75
2018-05-16T04:30:17.409Z,16.67
2018-05-16T04:30:53.001Z,16.70
2018-05-16T04:31:28.476Z,16.77
2018-05-16T04:32:03.891Z,16.70
2018-05-16T04:32:39.132Z,16.80
2018-05-16T04:33:14.644Z,16.75
2018-05-16T04:33:49.895Z,16.75
2018-05-16T04:34:25.237Z,16.83
2018-05-16T04:35:00.906Z,16.77
2018-05-16T04:35:36.376Z,16.88
2018-05-16T04:36:11.621Z,16.89
2018-05-16T04:36:46.952Z,16.96
2018-05-16T04:37:22.080Z,16.95
2018-05-16T04:37:57.659Z,16.88
2018-05-16T04:38:32.995Z,16.88
2018-05-16T04:39:08.327Z,16.85
2018-05-16T04:39:43.544Z,16.90
2018-05-16T04:40:19.121Z,16.95
2018-05-16T04:40:54.685Z,16.93
2018-05-16T04:41:30.451Z,17.03
2018-05-16T04:42:05.788Z,17.06
2018-05-16T04:42:41.147Z,17.10
2018-05-16T04:43:17.619Z,16.95
2018-05-16T04:43:53.184Z,17.04
2018-05-16T04:44:28.638Z,17.04
2018-05-16T04:45:04.111Z,17.00
2018-05-16T04:45:39.353Z,16.89
2018-05-16T04:46:15.016Z,16.90
2018-05-16T04:46:50.231Z,16.95
2018-05-16T04:47:25.749Z,16.95
2018-05-16T04:48:01.106Z,16.99
2018-05-16T04:48:36.511Z,17.00
2018-05-16T04:49:12.152Z,16.95
2018-05-16T04:49:47.556Z,17.04
2018-05-16T04:50:23.210Z,17.00
2018-05-16T04:50:58.580Z,17.13
2018-05-16T04:51:33.995Z,17.11
2018-05-16T04:52:09.456Z,17.08
2018-05-16T04:52:45.075Z,17.10
2018-05-16T04:53:20.340Z,17.11
2018-05-16T04:53:55.834Z,17.17
2018-05-16T04:54:31.095Z,17.11
2018-05-16T04:55:06.133Z,17.14
2018-05-16T04:55:41.662Z,17.13
2018-05-16T04:56:16.836Z,17.15
2018-05-16T04:56:52.368Z,17.11
2018-05-16T04:57:27.593Z,17.08
2018-05-16T04:58:03.097Z,17.14
2018-05-16T04:58:38.880Z,17.13
2018-05-16T04:59:14.226Z,17.17
2018-05-16T04:59:49.747Z,17.17
2018-05-16T05:00:24.930Z,17.15
2018-05-16T05:01:00.327Z,17.23
2018-05-16T05:01:35.525Z,17.18
2018-05-16T05:02:10.755Z,17.11
2018-05-16T05:02:46.155Z,17.14
2018-05-16T05:03:21.526Z,17.14
2018-05-16T05:03:57.171Z,17.14
2018-05-16T05:04:32.580Z,17.11
2018-05-16T05:05:08.146Z,17.14
2018-05-16T05:05:43.406Z,17.15
2018-05-16T05:06:18.994Z,17.13
2018-05-16T05:06:54.662Z,17.20
2018-05-16T05:07:30.150Z,17.28
2018-05-16T05:08:05.543Z,17.28
2018-05-16T05:08:41.221Z,17.28
2018-05-16T05:09:16.775Z,17.29
2018-05-16T05:09:52.223Z,17.28
2018-05-16T05:10:27.591Z,17.32
2018-05-16T05:11:03.000Z,17.32
2018-05-16T05:11:38.431Z,17.23
2018-05-16T05:12:13.709Z,17.32
2018-05-16T05:12:48.824Z,17.36
2018-05-16T05:13:24.048Z,17.25
2018-05-16T05:13:59.373Z,17.30
2018-05-16T05:14:34.679Z,17.36
2018-05-16T05:15:10.044Z,17.33
2018-05-16T05:15:45.633Z,17.46
2018-05-16T05:16:20.965Z,17.36
2018-05-16T05:16:56.223Z,17.47
2018-05-16T05:17:31.652Z,17.46
2018-05-16T05:18:07.169Z,17.51
2018-05-16T05:18:42.554Z,17.48
2018-05-16T05:19:18.005Z,17.53
2018-05-16T05:19:53.499Z,17.51
2018-05-16T05:20:28.926Z,17.53
2018-05-16T05:21:04.392Z,17.62
2018-05-16T05:21:40.099Z,17.59
2018-05-16T05:22:15.598Z,17.54
2018-05-16T05:22:50.972Z,17.64
2018-05-16T05:23:26.211Z,17.64
2018-05-16T05:24:01.504Z,17.73
2018-05-16T05:24:36.554Z,17.76
2018-05-16T05:25:11.839Z,17.82
2018-05-16T05:25:46.918Z,17.78
2018-05-16T05:26:21.999Z,17.84
2018-05-16T05:26:57.385Z,17.79
2018-05-16T05:27:32.816Z,17.87
2018-05-16T05:28:08.249Z,17.88
2018-05-16T05:28:43.298Z,17.87
2018-05-16T05:29:19.044Z,17.91
2018-05-16T05:29:54.225Z,17.95
2018-05-16T05:30:29.868Z,17.88
2018-05-16T05:31:05.362Z,17.94
2018-05-16T05:31:41.022Z,18.04
2018-05-16T05:32:16.294Z,17.89
2018-05-16T05:32:51.727Z,18.04
2018-05-16T05:33:27.013Z,17.95
2018-05-16T05:34:02.479Z,18.04
2018-05-16T05:34:38.428Z,17.95
2018-05-16T05:35:13.581Z,18.06
2018-05-16T05:35:49.769Z,18.15
2018-05-16T05:36:25.253Z,18.19
2018-05-16T05:37:00.643Z,18.15
2018-05-16T05:37:35.919Z,18.29
2018-05-16T05:38:11.702Z,18.27
2018-05-16T05:38:46.825Z,18.28
2018-05-16T05:39:22.036Z,18.34
2018-05-16T05:39:57.405Z,18.39
2018-05-16T05:40:32.830Z,18.37
2018-05-16T05:41:08.119Z,18.34
2018-05-16T05:41:43.488Z,18.37
2018-05-16T05:42:18.784Z,18.46
2018-05-16T05:42:54.333Z,18.54
2018-05-16T05:43:29.765Z,18.62
2018-05-16T05:44:04.821Z,18.58
2018-05-16T05:44:40.128Z,18.73
2018-05-16T05:45:15.574Z,18.67
2018-05-16T05:45:50.864Z,18.68
2018-05-16T05:46:26.479Z,18.80
2018-05-16T05:47:01.891Z,18.79
2018-05-16T05:47:37.080Z,18.84
2018-05-16T05:48:12.217Z,18.80
2018-05-16T05:48:47.399Z,18.84
2018-05-16T05:49:22.827Z,18.92
2018-05-16T05:49:58.323Z,18.86
2018-05-16T05:50:34.002Z,18.91
2018-05-16T05:51:09.380Z,18.99
2018-05-16T05:51:44.756Z,19.01
2018-05-16T05:52:20.194Z,19.10
2018-05-16T05:52:55.540Z,18.97
2018-05-16T05:53:30.727Z,19.08
2018-05-16T05:54:05.843Z,19.08
2018-05-16T05:54:41.066Z,19.11
2018-05-16T05:55:16.660Z,19.06
2018-05-16T05:55:51.898Z,19.10
2018-05-16T05:56:26.985Z,19.10
2018-05-16T05:57:02.396Z,19.24
2018-05-16T05:57:37.489Z,19.24
2018-05-16T05:58:13.055Z,19.33
2018-05-16T05:58:48.472Z,19.28
2018-05-16T05:59:24.062Z,19.28
2018-05-16T05:59:59.824Z,19.32
2018-05-16T06:00:35.575Z,19.33
2018-05-16T06:01:10.988Z,19.28
2018-05-16T06:01:46.175Z,19.38
2018-05-16T06:02:21.369Z,19.35
2018-05-16T06:02:56.711Z,19.33
2018-05-16T06:03:31.896Z,19.46
2018-05-16T06:04:07.267Z,19.46
2018-05-16T06:04:42.621Z,19.50
2018-05-16T06:05:18.784Z,19.55
2018-05-16T06:05:55.161Z,19.68
2018-05-16T06:06:30.773Z,19.63
2018-05-16T06:07:06.091Z,19.73
2018-05-16T06:07:41.796Z,19.75
2018-05-16T06:08:17.161Z,19.91
2018-05-16T06:08:52.722Z,19.90
2018-05-16T06:09:28.076Z,19.93
2018-05-16T06:10:03.486Z,20.02
2018-05-16T06:10:38.878Z,20.10
2018-05-16T06:11:14.237Z,20.23
2018-05-16T06:11:49.714Z,20.24
2018-05-16T06:12:25.009Z,20.31
2018-05-16T06:13:00.557Z,20.31
2018-05-16T06:13:36.000Z,20.35
2018-05-16T06:14:11.775Z,20.41
2018-05-16T06:14:47.008Z,20.39
2018-05-16T06:15:22.523Z,20.51
2018-05-16T06:15:57.951Z,20.50
2018-05-16T06:16:33.279Z,20.53
2018-05-16T06:17:09.859Z,20.53
2018-05-16T06:17:45.382Z,20.62
2018-05-16T06:18:21.428Z,20.68
2018-05-16T06:18:57.588Z,20.71
2018-05-16T06:19:33.182Z,20.89
2018-05-16T06:20:08.688Z,20.93
2018-05-16T06:20:45.183Z,21.01
2018-05-16T06:21:20.608Z,20.96
2018-05-16T06:21:55.873Z,21.16
2018-05-16T06:22:31.539Z,21.19
2018-05-16T06:23:06.739Z,21.27
2018-05-16T06:23:42.348Z,21.42
2018-05-16T06:24:17.409Z,21.50
2018-05-16T06:24:52.969Z,21.53
2018-05-16T06:25:28.632Z,21.45
2018-05-16T06:26:09.197Z,21.44
2018-05-16T06:26:44.641Z,21.50
2018-05-16T06:27:20.078Z,21.50
2018-05-16T06:27:57.764Z,21.42
2018-05-16T06:28:33.168Z,21.29
2018-05-16T06:29:08.597Z,21.29
2018-05-16T06:29:44.377Z,21.27
2018-05-16T06:30:20.139Z,21.34
2018-05-16T06:30:57.545Z,21.39
2018-05-16T06:31:32.957Z,21.54
2018-05-16T06:32:08.738Z,21.67
2018-05-16T06:32:44.630Z,21.78
2018-05-16T06:33:20.275Z,21.85
2018-05-16T06:33:55.898Z,22.13
2018-05-16T06:34:31.778Z,22.28
2018-05-16T06:35:07.044Z,22.53
2018-05-16T06:35:43.631Z,22.67
2018-05-16T06:36:18.973Z,22.86
2018-05-16T06:36:58.551Z,23.05
2018-05-16T06:37:34.183Z,23.08
2018-05-16T06:38:10.047Z,23.23
2018-05-16T06:38:46.882Z,23.32
2018-05-16T06:39:22.367Z,23.46
2018-05-16T06:39:57.678Z,23.61
2018-05-16T06:40:33.181Z,23.75
2018-05-16T06:41:11.436Z,23.77
2018-05-16T06:41:46.787Z,23.92
2018-05-16T06:42:22.259Z,24.01
2018-05-16T06:42:57.613Z,24.19
2018-05-16T06:43:32.971Z,24.16
2018-05-16T06:44:08.293Z,24.23
2018-05-16T06:44:47.587Z,24.39
2018-05-16T06:45:23.070Z,24.47
2018-05-16T06:45:58.253Z,24.49
2018-05-16T06:46:33.576Z,24.44
2018-05-16T06:47:08.918Z,24.59
2018-05-16T06:47:44.386Z,24.76
2018-05-16T06:48:19.678Z,24.83
2018-05-16T06:48:55.377Z,24.85
2018-05-16T06:49:30.811Z,24.95
2018-05-16T06:50:08.427Z,24.77
2018-05-16T06:50:44.298Z,24.67
2018-05-16T06:51:19.934Z,24.69
2018-05-16T06:51:55.509Z,24.61
2018-05-16T06:52:30.945Z,24.56
2018-05-16T06:53:06.461Z,24.41
2018-05-16T06:53:42.262Z,24.22
2018-05-16T06:54:17.730Z,24.24
2018-05-16T06:54:55.003Z,24.14
2018-05-16T06:55:30.352Z,23.92
2018-05-16T06:56:05.839Z,23.77
2018-05-16T06:56:41.617Z,23.89
2018-05-16T06:57:16.991Z,23.77
2018-05-16T06:57:52.330Z,23.57
2018-05-16T06:58:27.645Z,23.52
2018-05-16T06:59:03.315Z,23.42
2018-05-16T06:59:38.923Z,23.26
2018-05-16T07:00:14.395Z,23.15
2018-05-16T07:00:50.432Z,22.96
2018-05-16T07:01:28.910Z,22.80
2018-05-16T07:02:04.244Z,22.72
2018-05-16T07:02:39.749Z,22.68
2018-05-16T07:03:15.130Z,22.49
2018-05-16T07:03:50.370Z,22.49
2018-05-16T07:04:25.558Z,22.43
2018-05-16T07:05:01.120Z,22.34
2018-05-16T07:05:36.467Z,22.13
2018-05-16T07:06:11.914Z,22.01
2018-05-16T07:06:47.408Z,21.95
2018-05-16T07:07:22.642Z,22.01
2018-05-16T07:07:57.892Z,21.98
2018-05-16T07:08:33.366Z,21.95
2018-05-16T07:09:08.826Z,21.91
2018-05-16T07:09:44.193Z,21.75
2018-05-16T07:10:19.707Z,21.67
2018-05-16T07:10:55.048Z,21.60
2018-05-16T07:11:30.524Z,21.44
2018-05-16T07:12:05.957Z,21.23
2018-05-16T07:12:41.367Z,21.20
2018-05-16T07:13:16.682Z,21.16
2018-05-16T07:13:52.117Z,21.13
2018-05-16T07:14:27.503Z,20.98
2018-05-16T07:15:02.767Z,20.86
2018-05-16T07:15:38.564Z,20.74
2018-05-16T07:16:13.928Z,20.77
2018-05-16T07:16:49.339Z,20.69
2018-05-16T07:17:24.840Z,20.59
2018-05-16T07:18:00.430Z,20.50
2018-05-16T07:18:35.973Z,20.59
2018-05-16T07:19:11.279Z,20.59
2018-05-16T07:19:46.515Z,20.58
2018-05-16T07:20:22.022Z,20.54
2018-05-16T07:20:57.388Z,20.53
2018-05-16T07:21:32.826Z,20.42
2018-05-16T07:22:08.343Z,20.33
2018-05-16T07:22:43.859Z,20.41
2018-05-16T07:23:19.533Z,20.39
2018-05-16T07:23:55.037Z,20.35
2018-05-16T07:24:30.156Z,20.34
2018-05-16T07:25:05.764Z,20.27
2018-05-16T07:25:40.927Z,20.30
2018-05-16T07:26:16.270Z,20.27
2018-05-16T07:26:51.811Z,20.27
2018-05-16T07:27:27.034Z,20.27
2018-05-16T07:28:02.166Z,20.27
2018-05-16T07:28:37.349Z,20.15
2018-05-16T07:29:12.585Z,20.24
2018-05-16T07:29:49.208Z,20.21
2018-05-16T07:30:24.518Z,20.20
2018-05-16T07:31:00.095Z,20.13
2018-05-16T07:31:35.460Z,20.08
2018-05-16T07:32:10.934Z,20.16
2018-05-16T07:32:46.876Z,20.16
2018-05-16T07:33:22.179Z,20.20
2018-05-16T07:33:57.658Z,20.24
2018-05-16T07:34:33.196Z,20.21
2018-05-16T07:35:08.661Z,20.24
2018-05-16T07:35:43.952Z,20.23
2018-05-16T07:36:19.486Z,20.28
2018-05-16T07:36:54.890Z,20.34